Time;durP1;ratioP1;P1;durP2;ratioP2;P2;SDS_P1;SDS_P2;PMS_P1;PMS_P2;Temp;Humidity;BMP_temperature;BMP_pressure;BME280_temperature;BME280_humidity;BME280_pressure;Samples;Min_cycle;Max_cycle;Signal;HPM_P1;HPM_P2
2021/06/16 00:01:28;;;;;;;3.52;3.42;;;;;;;20.33;68.67;99946.92;1639101;86;21047;-93
2021/06/16 00:04:05;;;;;;;5.00;4.80;;;;;;;20.34;68.75;99950.44;1601166;88;21086;-94
2021/06/16 00:06:33;;;;;;;4.33;4.22;;;;;;;20.35;68.71;99954.78;1624105;86;21146;-93
2021/06/16 00:09:04;;;;;;;4.75;4.55;;;;;;;20.33;68.81;99958.30;1662553;85;21080;-95
2021/06/16 00:11:35;;;;;;;5.05;4.75;;;;;;;20.27;69.10;99966.09;1671089;85;21059;-94
2021/06/16 00:14:03;;;;;;;4.08;3.90;;;;;;;20.27;69.18;99966.09;1656629;85;21051;-94
2021/06/16 00:16:30;;;;;;;4.60;4.17;;;;;;;20.32;69.20;99960.16;1657636;85;21715;-94
2021/06/16 00:18:57;;;;;;;5.25;4.92;;;;;;;20.34;69.08;99960.74;1656638;85;21006;-94
2021/06/16 00:21:26;;;;;;;4.95;4.65;;;;;;;20.34;69.33;99960.74;1654235;85;21113;-92
2021/06/16 00:23:53;;;;;;;3.85;3.65;;;;;;;20.29;69.51;99963.96;1652932;85;21065;-93
2021/06/16 00:26:20;;;;;;;5.12;4.92;;;;;;;20.21;69.81;99969.30;1652688;85;21041;-92
2021/06/16 00:28:48;;;;;;;5.35;5.05;;;;;;;20.22;69.97;99972.30;1654773;84;21001;-91
2021/06/16 00:31:14;;;;;;;;;;;;;;;20.28;69.94;99970.44;1658089;83;21127;-92
2021/06/16 00:33:40;;;;;;;5.20;5.00;;;;;;;20.29;69.87;99968.02;1667556;85;20141;-90
2021/06/16 00:36:07;;;;;;;5.10;4.85;;;;;;;20.22;69.79;99966.88;1659754;85;21031;-90
2021/06/16 00:38:33;;;;;;;5.60;5.30;;;;;;;20.17;69.80;99964.14;1657402;85;21055;-91
2021/06/16 00:41:03;;;;;;;4.90;4.67;;;;;;;20.15;70.01;99964.94;1648636;85;21208;-94
2021/06/16 00:43:32;;;;;;;4.75;4.55;;;;;;;20.16;69.88;99958.47;1666879;85;21066;-94
2021/06/16 00:45:59;;;;;;;5.62;5.12;;;;;;;20.20;69.77;99964.98;1664479;85;21145;-92
2021/06/16 00:48:25;;;;;;;4.72;4.53;;;;;;;20.20;69.70;99960.92;1673175;85;21069;-91
2021/06/16 00:50:51;;;;;;;5.45;5.10;;;;;;;20.20;69.54;99956.86;1656196;85;21119;-91
2021/06/16 00:53:18;;;;;;;5.08;4.75;;;;;;;20.18;69.08;99959.02;1658230;85;21054;-91
2021/06/16 00:55:45;;;;;;;5.45;5.25;;;;;;;20.16;69.10;99955.77;1656652;85;21039;-91
2021/06/16 00:58:12;;;;;;;5.45;5.12;;;;;;;20.15;69.13;99960.88;1675417;85;21109;-92
2021/06/16 01:00:44;;;;;;;4.78;4.55;;;;;;;20.15;69.09;99972.51;1680075;85;21116;-92
2021/06/16 01:03:23;;;;;;;6.87;4.58;;;;;;;20.17;68.94;99972.25;1656507;85;21003;-93
2021/06/16 01:06:16;;;;;;;4.95;4.72;;;;;;;20.15;68.88;99972.51;1655005;85;21066;-93
2021/06/16 01:08:54;;;;;;;4.87;4.67;;;;;;;20.16;68.70;99966.58;1663864;85;21561;-93
2021/06/16 01:11:24;;;;;;;5.12;4.75;;;;;;;20.15;68.25;99964.94;1659329;84;21074;-92
2021/06/16 01:13:58;;;;;;;6.00;4.22;;;;;;;20.19;67.73;99964.69;1668851;85;20995;-94
2021/06/16 01:16:47;;;;;;;4.67;4.47;;;;;;;20.25;67.24;99968.24;1667816;85;21139;-92
2021/06/16 01:19:52;;;;;;;5.55;5.25;;;;;;;20.28;66.51;99970.44;1627072;86;21543;-94
2021/06/16 01:22:45;;;;;;;5.20;4.90;;;;;;;20.24;66.15;99976.91;1654768;84;21075;-93
2021/06/16 01:25:29;;;;;;;4.87;4.58;;;;;;;20.14;66.18;99976.31;1649710;85;21071;-93
2021/06/16 01:28:01;;;;;;;4.95;4.65;;;;;;;20.12;65.65;99966.83;1658835;85;21023;-90
2021/06/16 01:30:31;;;;;;;5.25;4.90;;;;;;;20.15;65.14;99966.30;1636485;85;20988;-93
2021/06/16 01:33:07;;;;;;;5.40;5.15;;;;;;;20.15;65.09;99973.05;1658494;85;21034;-96
2021/06/16 01:35:42;;;;;;;6.10;5.65;;;;;;;20.15;65.08;99977.12;1657435;85;21025;-94
2021/06/16 01:38:09;;;;;;;6.75;6.35;;;;;;;20.17;64.87;99972.25;1669519;85;21103;-87
2021/06/16 01:40:36;;;;;;;6.55;6.00;;;;;;;20.17;64.51;99982.56;1630321;85;21664;-86
2021/06/16 01:43:05;;;;;;;5.87;5.47;;;;;;;20.19;64.41;99991.75;1635783;86;21059;-85
2021/06/16 01:45:35;;;;;;;4.70;4.50;;;;;;;20.23;64.26;99996.39;1652209;85;21811;-88
2021/06/16 01:48:06;;;;;;;8.50;4.87;;;;;;;20.27;64.28;100006.68;1665044;85;21039;-86
2021/06/16 01:50:35;;;;;;;6.33;6.03;;;;;;;20.24;64.38;100014.79;1611262;87;21048;-88
2021/06/16 01:53:02;;;;;;;6.30;6.00;;;;;;;20.22;64.72;100015.05;1612935;87;20932;-88
2021/06/16 01:55:28;;;;;;;5.10;4.90;;;;;;;20.17;65.21;100007.43;1621839;87;21132;-86
2021/06/16 01:57:58;;;;;;;6.17;5.80;;;;;;;20.15;65.58;100005.53;1618643;87;21103;-87
2021/06/16 02:00:25;;;;;;;5.78;5.42;;;;;;;20.15;65.66;100004.98;1623683;86;21024;-86
2021/06/16 02:02:51;;;;;;;5.62;5.30;;;;;;;20.17;65.84;100005.56;1625117;87;21103;-86
2021/06/16 02:05:20;;;;;;;5.55;5.35;;;;;;;20.16;66.01;100004.47;1581250;90;21076;-86
2021/06/16 02:07:58;;;;;;;6.12;5.80;;;;;;;20.12;65.94;100008.77;1636816;87;21019;-85
2021/06/16 02:10:30;;;;;;;6.53;6.15;;;;;;;20.03;65.84;100015.19;1601544;87;21187;-87
2021/06/16 02:13:00;;;;;;;5.72;5.30;;;;;;;19.98;66.03;100020.55;1595826;88;21016;-84
2021/06/16 02:15:44;;;;;;;5.72;5.42;;;;;;;19.98;66.28;100028.13;1607880;87;21134;-86
2021/06/16 02:18:11;;;;;;;6.47;5.97;;;;;;;19.98;66.25;100031.37;1599537;87;21132;-85
2021/06/16 02:20:39;;;;;;;6.35;6.05;;;;;;;19.95;66.31;100035.96;1596680;89;21009;-85
2021/06/16 02:23:06;;;;;;;6.50;6.10;;;;;;;19.94;66.33;100030.27;1617993;85;21090;-84
2021/06/16 02:25:35;;;;;;;6.90;6.40;;;;;;;19.95;66.35;100034.06;1618467;87;21035;-87
2021/06/16 02:28:02;;;;;;;6.40;6.08;;;;;;;19.95;66.44;100040.02;1612057;87;21028;-85
2021/06/16 02:30:28;;;;;;;5.92;5.55;;;;;;;19.95;66.37;100035.96;1634518;87;21080;-85
2021/06/16 02:32:55;;;;;;;6.28;5.97;;;;;;;19.94;66.36;100040.53;1592468;87;21051;-85
2021/06/16 02:35:23;;;;;;;6.28;5.80;;;;;;;19.92;66.47;100048.09;1597178;87;21023;-88
2021/06/16 02:38:00;;;;;;;6.58;6.05;;;;;;;19.91;66.44;100043.77;1618367;87;21108;-86
2021/06/16 02:40:26;;;;;;;6.20;5.70;;;;;;;19.88;66.75;100045.62;1615553;88;21085;-89
2021/06/16 02:42:54;;;;;;;6.60;6.10;;;;;;;19.81;66.91;100046.38;1617825;87;21020;-88
2021/06/16 02:45:21;;;;;;;6.83;6.42;;;;;;;19.75;67.18;100048.75;1599524;88;21813;-90
2021/06/16 02:47:50;;;;;;;5.85;5.55;;;;;;;19.76;67.22;100049.02;1605097;87;21042;-86
2021/06/16 02:50:27;;;;;;;6.30;5.75;;;;;;;19.77;66.38;100053.37;1612085;88;21110;-86
2021/06/16 02:52:57;;;;;;;5.83;5.17;;;;;;;19.76;66.66;100057.13;1613518;87;21524;-86
2021/06/16 02:55:26;;;;;;;6.50;6.03;;;;;;;19.71;66.62;100053.83;1616678;87;21179;-86
2021/06/16 02:57:54;;;;;;;6.87;6.37;;;;;;;19.66;66.58;100049.71;1608628;88;21092;-89
2021/06/16 03:00:21;;;;;;;6.25;5.95;;;;;;;19.63;66.56;100048.34;1617207;87;21646;-88
2021/06/16 03:02:50;;;;;;;6.58;6.03;;;;;;;19.65;66.45;100044.84;1616556;87;21015;-88
2021/06/16 03:05:25;;;;;;;6.10;5.60;;;;;;;19.67;66.47;100043.79;1613338;87;21011;-88
2021/06/16 03:07:58;;;;;;;6.25;5.85;;;;;;;19.65;66.16;100045.39;1617543;87;21051;-88
2021/06/16 03:10:28;;;;;;;6.12;5.83;;;;;;;19.62;66.28;100039.94;1617735;87;21122;-89
2021/06/16 03:12:57;;;;;;;6.67;6.28;;;;;;;19.58;66.37;100033.42;1605156;88;21007;-89
2021/06/16 03:15:25;;;;;;;6.50;5.67;;;;;;;19.62;66.49;100031.83;1602927;88;21235;-89
2021/06/16 03:17:53;;;;;;;6.58;6.15;;;;;;;19.68;66.31;100034.05;1603777;88;21031;-89
2021/06/16 03:20:22;;;;;;;7.08;5.78;;;;;;;19.68;65.83;100040.00;1616552;87;21176;-89
2021/06/16 03:22:54;;;;;;;6.00;5.42;;;;;;;19.63;65.76;100030.77;1609057;87;21051;-88
2021/06/16 03:25:21;;;;;;;6.22;5.92;;;;;;;19.60;65.87;100029.11;1603798;88;21058;-88
2021/06/16 03:27:51;;;;;;;6.12;5.80;;;;;;;19.57;65.83;100030.97;1617969;87;21110;-89
2021/06/16 03:30:21;;;;;;;7.00;6.33;;;;;;;19.59;65.71;100036.42;1620533;87;21059;-89
2021/06/16 03:32:52;;;;;;;6.65;6.30;;;;;;;19.60;65.59;100035.88;1607455;87;21153;-88
2021/06/16 03:35:19;;;;;;;6.20;5.90;;;;;;;19.60;65.67;100034.52;1603841;87;21080;-86
2021/06/16 03:37:46;;;;;;;6.70;6.33;;;;;;;19.60;65.78;100036.68;1604415;88;20983;-87
2021/06/16 03:40:14;;;;;;;9.40;7.33;;;;;;;19.67;65.68;100041.09;1606317;88;21022;-86
2021/06/16 03:42:42;;;;;;;6.03;5.80;;;;;;;19.68;65.71;100043.51;1590047;89;21042;-87
2021/06/16 03:45:10;;;;;;;6.42;5.90;;;;;;;19.72;65.59;100047.39;1595216;88;21011;-86
2021/06/16 03:47:40;;;;;;;6.60;6.22;;;;;;;19.80;65.36;100046.91;1583390;89;21146;-88
2021/06/16 03:50:09;;;;;;;5.62;5.12;;;;;;;19.84;65.05;100053.44;1610197;88;21008;-88
2021/06/16 03:52:38;;;;;;;6.05;5.75;;;;;;;19.80;65.05;100055.57;1597946;88;21471;-88
2021/06/16 03:55:05;;;;;;;6.47;6.15;;;;;;;19.76;65.00;100055.78;1611998;88;21011;-88
2021/06/16 03:57:32;;;;;;;7.47;5.67;;;;;;;19.72;65.08;100055.98;1574055;90;21043;-88
2021/06/16 04:00:02;;;;;;;6.80;6.40;;;;;;;19.75;65.03;100057.67;1605089;88;21029;-88
2021/06/16 04:02:31;;;;;;;6.60;6.08;;;;;;;19.83;64.79;100064.50;1602942;88;21001;-87
2021/06/16 04:05:03;;;;;;;6.60;6.20;;;;;;;19.88;64.53;100063.20;1591051;89;21055;-88
2021/06/16 04:07:30;;;;;;;6.78;6.30;;;;;;;19.84;64.57;100066.16;1606688;88;21047;-88
2021/06/16 04:09:57;;;;;;;7.05;6.40;;;;;;;20.05;64.73;100069.04;1607251;88;21075;-88
2021/06/16 04:12:25;;;;;;;6.40;5.97;;;;;;;20.60;63.71;100070.55;1597784;88;20994;-87
2021/06/16 04:18:11;;;;;;;6.03;5.62;;;;;;;21.55;59.61;100070.45;1824349;77;22953;-87
2021/06/16 04:20:39;;;;;;;6.00;5.50;;;;;;;21.53;59.23;100073.97;1792502;78;21049;-88
2021/06/16 04:23:05;;;;;;;5.25;4.92;;;;;;;21.55;59.22;100072.35;1770065;78;21051;-87
2021/06/16 04:25:33;;;;;;;5.80;5.30;;;;;;;21.55;59.08;100082.65;1770502;79;21520;-87
2021/06/16 04:27:59;;;;;;;6.03;5.65;;;;;;;21.64;58.53;100082.12;1723469;81;21009;-87
2021/06/16 04:30:26;;;;;;;5.00;4.58;;;;;;;21.81;58.13;100085.39;1705992;82;21021;-87
2021/06/16 04:32:54;;;;;;;5.10;4.80;;;;;;;22.31;56.64;100087.90;1724106;81;21658;-87
2021/06/16 04:35:21;;;;;;;4.90;4.60;;;;;;;22.82;55.46;100083.48;1687161;83;21060;-88
2021/06/16 04:37:48;;;;;;;4.83;4.62;;;;;;;23.31;54.09;100082.22;1698477;83;21532;-87
2021/06/16 04:40:16;;;;;;;4.87;4.37;;;;;;;23.74;52.75;100077.64;1702721;82;21487;-88
2021/06/16 04:42:43;;;;;;;5.47;5.00;;;;;;;23.98;51.47;100081.86;1703651;82;21038;-88
2021/06/16 04:45:11;;;;;;;4.78;3.83;;;;;;;24.06;51.20;100091.32;1706130;83;21069;-89
2021/06/16 04:47:37;;;;;;;4.28;4.17;;;;;;;24.28;51.62;100086.23;1709433;82;21139;-88
2021/06/16 04:50:11;;;;;;;5.95;4.78;;;;;;;24.81;50.43;100092.84;1713231;82;21070;-88
2021/06/16 04:52:40;;;;;;;4.70;4.33;;;;;;;25.19;49.64;100084.76;1714960;82;21544;-90
2021/06/16 04:55:09;;;;;;;4.08;3.77;;;;;;;25.23;48.88;100084.46;1709409;83;21667;-88
2021/06/16 05:00:54;;;;;;;5.25;4.95;;;;;;;24.23;50.59;100081.38;1695686;82;21126;-95
2021/06/16 05:03:14;;;;;;;5.90;5.42;;;;;;;23.44;52.62;100088.16;1672225;84;21015;-88
2021/06/16 05:05:40;;;;;;;7.60;4.47;;;;;;;22.86;54.23;100082.64;1666718;83;21148;-88
2021/06/16 05:08:08;;;;;;;5.37;4.97;;;;;;;22.52;55.36;100090.59;1726979;81;21080;-86
2021/06/16 05:10:35;;;;;;;5.22;4.58;;;;;;;22.37;56.44;100090.06;1710650;81;21484;-86
2021/06/16 05:13:03;;;;;;;5.53;5.00;;;;;;;22.52;56.47;100090.59;1716722;81;21145;-87
2021/06/16 05:15:30;;;;;;;7.65;5.60;;;;;;;22.83;56.20;100090.52;1718695;81;21075;-87
2021/06/16 05:17:56;;;;;;;5.72;5.33;;;;;;;23.40;55.04;100089.27;1727135;82;21003;-86
2021/06/16 05:20:25;;;;;;;4.55;4.35;;;;;;;23.96;53.38;100087.30;1713966;81;21046;-85
2021/06/16 05:22:51;;;;;;;4.75;4.47;;;;;;;24.37;52.05;100085.61;1722678;82;21111;-85
2021/06/16 05:25:18;;;;;;;4.62;4.37;;;;;;;24.71;50.62;100097.02;1720352;81;21018;-86
2021/06/16 05:27:45;;;;;;;4.72;4.25;;;;;;;25.03;50.54;100099.11;1735238;81;21113;-86
2021/06/16 05:30:13;;;;;;;5.95;4.30;;;;;;;25.37;48.91;100097.66;1721518;81;21001;-89
2021/06/16 05:32:40;;;;;;;3.47;3.37;;;;;;;25.57;48.52;100094.37;1725443;81;20999;-94
2021/06/16 05:35:08;;;;;;;4.12;4.03;;;;;;;25.68;48.19;100093.69;1734327;81;21017;-90
2021/06/16 05:37:34;;;;;;;4.50;4.20;;;;;;;25.67;47.98;100097.51;1731249;82;22388;-84
2021/06/16 05:40:00;;;;;;;6.70;4.33;;;;;;;25.68;48.18;100097.78;1716004;81;21029;-85
2021/06/16 05:42:26;;;;;;;3.90;3.70;;;;;;;25.78;48.09;100102.52;1715749;82;20984;-88
2021/06/16 05:44:52;;;;;;;5.70;4.35;;;;;;;25.68;47.76;100109.50;1735085;81;21083;-85
2021/06/16 05:47:19;;;;;;;5.00;4.25;;;;;;;25.21;48.66;100105.73;1726365;81;21046;-83
2021/06/16 05:49:45;;;;;;;8.43;4.37;;;;;;;24.78;49.72;100112.48;1712068;81;21228;-83
2021/06/16 05:52:12;;;;;;;4.72;4.17;;;;;;;24.36;50.79;100120.77;1728409;82;21049;-83
2021/06/16 05:54:38;;;;;;;6.45;4.72;;;;;;;24.01;51.91;100111.77;1679161;84;20999;-84
2021/06/16 05:57:07;;;;;;;6.85;4.97;;;;;;;23.69;52.37;100117.92;1679887;83;21023;-84
2021/06/16 05:59:33;;;;;;;5.12;4.80;;;;;;;23.51;53.14;100118.03;1664170;85;21116;-87
2021/06/16 06:02:01;;;;;;;5.67;4.53;;;;;;;23.41;53.94;100122.15;1677642;83;21045;-86
2021/06/16 06:04:27;;;;;;;6.75;4.92;;;;;;;23.27;54.30;100124.66;1661182;84;21165;-84
2021/06/16 06:06:53;;;;;;;3.83;3.72;;;;;;;22.93;54.17;100085.08;1673240;83;21013;-85
2021/06/16 06:09:19;;;;;;;4.37;4.08;;;;;;;23.09;54.25;100122.03;1667794;84;21507;-86
2021/06/16 06:11:46;;;;;;;4.58;4.37;;;;;;;23.09;54.17;100127.47;1669878;83;21085;-87
2021/06/16 06:14:12;;;;;;;4.22;3.83;;;;;;;23.15;54.26;100126.91;1659878;85;21132;-87
2021/06/16 06:16:38;;;;;;;4.03;3.62;;;;;;;23.16;54.00;100127.70;1696103;83;21626;-86
2021/06/16 06:19:05;;;;;;;5.37;3.87;;;;;;;23.20;53.57;100130.13;1698739;83;21062;-84
2021/06/16 06:21:32;;;;;;;5.30;4.03;;;;;;;23.21;53.75;100130.41;1711048;83;21562;-84
2021/06/16 06:24:01;;;;;;;4.78;4.28;;;;;;;23.29;53.96;100132.55;1721737;81;21033;-83
2021/06/16 06:26:27;;;;;;;7.25;3.50;;;;;;;23.51;53.10;100127.55;1725522;81;21117;-85
2021/06/16 06:28:54;;;;;;;3.45;3.00;;;;;;;23.70;52.59;100131.00;1716147;82;21019;-86
2021/06/16 06:31:23;;;;;;;3.40;3.25;;;;;;;23.83;52.24;100124.96;1718399;81;21009;-86
2021/06/16 06:33:51;;;;;;;5.00;3.10;;;;;;;24.04;51.83;100134.36;1736666;81;20987;-86
2021/06/16 06:36:19;;;;;;;3.60;2.70;;;;;;;24.32;51.40;100131.95;1726483;81;21223;-85
2021/06/16 06:38:47;;;;;;;6.22;4.08;;;;;;;24.61;50.46;100130.09;1716689;81;21086;-86
2021/06/16 06:41:15;;;;;;;3.25;3.15;;;;;;;24.94;49.93;100128.95;1721044;81;21630;-85
2021/06/16 06:43:42;;;;;;;4.55;3.72;;;;;;;25.21;48.85;100133.81;1718993;81;21121;-85
2021/06/16 06:46:30;;;;;;;5.53;3.75;;;;;;;25.55;47.95;100134.23;1708624;81;21436;-85
2021/06/16 06:48:56;;;;;;;3.83;3.62;;;;;;;25.79;47.47;100127.92;1623040;85;21073;-86
2021/06/16 06:51:22;;;;;;;4.10;3.77;;;;;;;25.93;47.14;100131.54;1658661;85;21179;-85
2021/06/16 06:53:48;;;;;;;3.67;3.12;;;;;;;26.10;46.12;100135.11;1642581;85;21141;-90
2021/06/16 06:56:15;;;;;;;3.27;3.08;;;;;;;26.21;45.86;100133.03;1639748;83;21054;-88
2021/06/16 06:58:41;;;;;;;4.45;3.37;;;;;;;26.44;46.00;100127.17;1625284;86;21152;-84
2021/06/16 07:01:08;;;;;;;4.00;3.25;;;;;;;26.82;45.88;100121.59;1625321;86;21787;-83
2021/06/16 07:03:34;;;;;;;4.92;3.27;;;;;;;26.99;45.10;100117.73;1627915;86;21132;-85
2021/06/16 07:06:00;;;;;;;2.20;2.10;;;;;;;27.00;43.92;100128.91;1640060;85;21153;-86
2021/06/16 07:08:27;;;;;;;3.80;3.47;;;;;;;26.95;43.48;100133.11;1632007;84;21090;-84
2021/06/16 07:10:53;;;;;;;3.05;2.95;;;;;;;26.79;44.40;100129.06;1635291;86;21143;-80
2021/06/16 07:13:21;;;;;;;3.47;3.00;;;;;;;26.51;44.65;100130.34;1625282;85;22274;-84
2021/06/16 07:15:48;;;;;;;4.12;3.22;;;;;;;26.38;45.34;100127.82;1642727;85;21048;-82
2021/06/16 07:18:14;;;;;;;6.75;3.25;;;;;;;26.41;45.73;100118.23;1633938;85;21092;-83
2021/06/16 07:20:41;;;;;;;5.40;3.47;;;;;;;26.50;45.56;100124.60;1638939;85;21120;-82
2021/06/16 07:23:07;;;;;;;4.70;3.33;;;;;;;26.62;45.70;100122.81;1663067;83;21073;-83
2021/06/16 07:25:35;;;;;;;12.60;3.75;;;;;;;26.73;45.72;100120.14;1661637;83;21067;-84
2021/06/16 07:28:01;;;;;;;7.78;4.28;;;;;;;26.86;45.04;100125.91;1686220;83;21057;-84
2021/06/16 07:30:28;;;;;;;5.17;2.77;;;;;;;26.77;45.09;100126.62;1692045;83;22294;-84
2021/06/16 07:32:55;;;;;;;6.90;3.33;;;;;;;26.67;45.58;100125.98;1693500;83;21113;-84
2021/06/16 07:35:22;;;;;;;4.60;3.33;;;;;;;26.76;45.77;100122.81;1741974;81;21100;-83
2021/06/16 07:37:48;;;;;;;5.37;3.10;;;;;;;26.80;45.07;100126.03;1739236;80;21093;-82
2021/06/16 07:40:16;;;;;;;9.48;3.25;;;;;;;26.63;44.97;100132.61;1739743;80;21018;-82
2021/06/16 07:42:44;;;;;;;5.55;3.02;;;;;;;26.42;45.40;100134.87;1719413;81;21015;-83
2021/06/16 07:45:11;;;;;;;2.95;2.52;;;;;;;26.17;46.37;100132.01;1725654;81;21064;-82
2021/06/16 07:47:39;;;;;;;2.77;2.58;;;;;;;25.99;46.88;100128.18;1700878;82;21019;-83
2021/06/16 07:50:08;;;;;;;7.90;2.90;;;;;;;25.84;47.72;100125.92;1655175;84;21595;-86
2021/06/16 07:52:36;;;;;;;6.15;3.40;;;;;;;25.84;47.35;100126.45;1663687;85;21154;-84
2021/06/16 07:55:04;;;;;;;5.35;2.40;;;;;;;25.86;47.11;100122.88;1673380;84;21011;-84
2021/06/16 07:58:39;;;;;;;3.37;2.52;;;;;;;25.84;45.76;100128.66;1862211;75;22435;-85
2021/06/16 08:01:06;;;;;;;4.50;2.70;;;;;;;25.72;45.60;100130.20;1825284;75;21014;-86
2021/06/16 08:03:32;;;;;;;2.95;2.27;;;;;;;25.61;46.16;100135.78;1798187;78;21572;-84
2021/06/16 08:06:00;;;;;;;2.50;2.30;;;;;;;25.55;46.55;100135.59;1795378;79;21037;-83
2021/06/16 08:08:26;;;;;;;2.80;1.80;;;;;;;25.52;47.25;100133.45;1807287;78;21030;-85
2021/06/16 08:10:54;;;;;;;9.38;1.60;;;;;;;25.49;45.52;100129.95;1783431;78;21010;-84
2021/06/16 08:13:22;;;;;;;2.25;2.15;;;;;;;25.47;46.05;100131.34;1758063;80;21037;-85
2021/06/16 08:15:48;;;;;;;1.82;1.30;;;;;;;25.51;45.00;100131.84;1751785;80;21045;-83
2021/06/16 08:18:16;;;;;;;22.98;2.40;;;;;;;25.57;45.16;100130.66;1759458;80;20997;-84
2021/06/16 08:20:42;;;;;;;2.55;1.80;;;;;;;25.60;45.41;100119.72;1760867;79;21602;-84
2021/06/16 08:23:08;;;;;;;2.00;1.90;;;;;;;25.75;45.42;100123.59;1774527;79;20988;-84
2021/06/16 08:25:35;;;;;;;1.85;1.20;;;;;;;25.90;44.29;100132.66;1783957;79;20965;-84
2021/06/16 08:28:02;;;;;;;2.98;1.10;;;;;;;25.99;43.80;100137.20;1760998;80;21480;-84
2021/06/16 08:30:29;;;;;;;0.85;0.80;;;;;;;25.91;42.90;100135.66;1769351;79;21041;-83
2021/06/16 08:32:56;;;;;;;3.02;1.15;;;;;;;25.84;43.32;100134.11;1784261;79;21037;-84
2021/06/16 08:35:22;;;;;;;1.00;0.90;;;;;;;25.86;43.06;100132.99;1786737;79;20967;-84
2021/06/16 08:37:48;;;;;;;2.12;1.05;;;;;;;25.84;42.48;100140.11;1768741;79;21041;-84
2021/06/16 08:40:17;;;;;;;5.92;0.78;;;;;;;25.86;41.88;100141.98;1783083;79;20951;-83
2021/06/16 08:42:46;;;;;;;1.45;0.57;;;;;;;25.88;42.46;100141.70;1772367;79;20973;-88
2021/06/16 08:45:15;;;;;;;2.40;0.93;;;;;;;25.92;41.46;100135.92;1774196;80;20985;-84
2021/06/16 08:47:47;;;;;;;6.03;0.68;;;;;;;25.87;41.13;100134.06;1770285;79;21560;-84
2021/06/16 08:50:14;;;;;;;1.55;0.40;;;;;;;25.93;40.96;100142.46;1709205;83;20998;-84
2021/06/16 08:52:43;;;;;;;1.65;0.72;;;;;;;25.92;40.27;100146.84;1725765;81;21065;-84
2021/06/16 08:55:14;;;;;;;0.25;0.25;;;;;;;25.80;40.58;100155.45;1721539;81;21486;-84
2021/06/16 08:57:41;;;;;;;1.85;0.60;;;;;;;25.66;40.81;100148.56;1724531;81;22127;-84
2021/06/16 09:00:11;;;;;;;2.75;0.30;;;;;;;25.60;40.62;100153.28;1675964;83;21062;-85
2021/06/16 09:02:37;;;;;;;0.37;0.37;;;;;;;25.41;40.95;100129.23;1709847;82;21088;-84
2021/06/16 09:05:05;;;;;;;0.88;0.20;;;;;;;25.56;38.89;100154.14;1708686;82;21275;-84
2021/06/16 09:07:33;;;;;;;0.75;0.30;;;;;;;25.54;38.67;100144.91;1716796;82;21053;-85
2021/06/16 09:10:19;;;;;;;0.62;0.57;;;;;;;25.54;38.60;100147.63;1708761;82;21114;-82
2021/06/16 09:12:55;;;;;;;0.50;0.30;;;;;;;25.52;38.83;100151.74;1708734;83;21529;-84
2021/06/16 09:15:25;;;;;;;3.50;0.73;;;;;;;25.52;39.39;100149.81;1697672;82;21002;-84
2021/06/16 09:18:12;;;;;;;0.40;0.40;;;;;;;25.53;39.08;100153.38;1707583;82;21058;-83
2021/06/16 09:20:44;;;;;;;2.80;0.20;;;;;;;25.54;38.64;100154.45;1687747;82;21512;-85
2021/06/16 09:23:16;;;;;;;1.40;0.40;;;;;;;25.59;37.90;100154.92;1716972;82;21591;-82
2021/06/16 09:25:44;;;;;;;1.20;0.23;;;;;;;25.63;36.99;100148.58;1716526;82;20991;-81
2021/06/16 09:28:11;;;;;;;1.05;0.28;;;;;;;25.63;37.13;100145.84;1712736;82;21055;-82
2021/06/16 09:30:42;;;;;;;2.17;0.75;;;;;;;25.69;37.88;100147.16;1729854;82;20986;-83
2021/06/16 09:33:13;;;;;;;0.50;0.30;;;;;;;25.77;38.19;100144.59;1713925;82;21069;-84
2021/06/16 09:35:48;;;;;;;3.15;0.20;;;;;;;25.86;38.52;100146.08;1711046;82;21037;-83
2021/06/16 09:38:35;;;;;;;2.67;0.20;;;;;;;25.90;38.24;100152.59;1709946;82;21095;-83
2021/06/16 09:42:33;;;;;;;2.80;0.30;;;;;;;25.93;37.96;100152.58;1714250;83;21077;-84
2021/06/16 09:45:18;;;;;;;1.70;0.40;;;;;;;25.95;37.92;100146.27;1704798;83;21111;-90
2021/06/16 09:48:27;;;;;;;2.27;0.40;;;;;;;25.92;39.07;100147.69;1689664;83;21042;-91
2021/06/16 09:51:29;;;;;;;3.33;0.30;;;;;;;25.87;39.48;100155.91;1699148;83;21096;-90
2021/06/16 09:54:25;;;;;;;4.85;0.50;;;;;;;25.88;39.46;100148.52;1697807;83;21008;-91
2021/06/16 09:56:47;;;;;;;3.60;0.30;;;;;;;25.87;39.38;100155.11;1709326;83;21052;-90
2021/06/16 09:59:37;;;;;;;0.68;0.30;;;;;;;25.89;39.67;100146.86;1729707;82;21041;-91
2021/06/16 10:02:03;;;;;;;2.37;0.40;;;;;;;26.00;40.05;100142.10;1739076;81;21017;-89
2021/06/16 10:04:44;;;;;;;1.52;0.20;;;;;;;26.13;39.40;100145.45;1719294;83;21119;-91
2021/06/16 10:07:18;;;;;;;1.20;0.25;;;;;;;26.14;39.55;100140.22;1700419;83;20989;-91
2021/06/16 10:10:06;;;;;;;0.95;0.50;;;;;;;26.10;39.39;100162.42;1703308;82;21063;-90
2021/06/16 10:12:39;;;;;;;0.78;0.20;;;;;;;26.01;39.68;100130.06;1702675;82;21045;-90
2021/06/16 10:15:17;;;;;;;1.72;0.25;;;;;;;25.99;39.97;100137.73;1713963;82;21017;-91
2021/06/16 10:17:45;;;;;;;1.42;0.60;;;;;;;26.03;39.22;100129.20;1703028;83;21022;-91
2021/06/16 10:20:15;;;;;;;2.83;0.30;;;;;;;26.07;38.84;100128.89;1727246;81;21197;-91
2021/06/16 10:22:41;;;;;;;3.65;0.30;;;;;;;26.09;38.39;100125.30;1710838;80;20974;-90
2021/06/16 10:25:09;;;;;;;1.65;0.30;;;;;;;26.07;37.66;100128.89;1758736;80;21034;-89
2021/06/16 10:27:56;;;;;;;1.30;0.20;;;;;;;26.05;37.88;100124.28;1746293;80;21076;-92
2021/06/16 10:30:28;;;;;;;12.45;0.57;;;;;;;26.02;38.45;100111.21;1758370;80;20985;-91
2021/06/16 10:32:55;;;;;;;2.08;0.20;;;;;;;25.99;38.30;100119.45;1750297;80;21021;-90
2021/06/16 10:35:33;;;;;;;0.62;0.20;;;;;;;26.01;38.26;100117.77;1763158;80;21594;-91
2021/06/16 10:38:17;;;;;;;4.28;0.42;;;;;;;26.00;37.72;100118.89;1750647;80;21032;-90
2021/06/16 10:40:54;;;;;;;2.67;0.20;;;;;;;25.96;37.73;100138.34;1748080;80;21023;-91
2021/06/16 10:43:23;;;;;;;1.45;0.30;;;;;;;25.92;37.92;100127.73;1752103;80;20985;-91
2021/06/16 10:46:00;;;;;;;0.30;0.30;;;;;;;25.85;38.42;100129.45;1751022;81;21128;-91
2021/06/16 10:48:53;;;;;;;1.20;0.30;;;;;;;25.90;37.68;100132.66;1756898;80;21028;-92
2021/06/16 10:51:28;;;;;;;6.25;0.40;;;;;;;25.92;37.63;100115.45;1754354;80;21049;-90
2021/06/16 10:54:19;;;;;;;1.37;0.20;;;;;;;25.99;37.88;100126.28;1751404;80;21015;-91
2021/06/16 10:57:05;;;;;;;3.35;0.30;;;;;;;26.10;37.20;100121.45;1757771;80;21030;-91
2021/06/16 10:59:50;;;;;;;0.62;0.30;;;;;;;26.16;37.25;100131.20;1724350;82;20982;-91
2021/06/16 11:02:25;;;;;;;0.30;0.10;;;;;;;26.22;37.29;100117.72;1723882;82;21128;-92
2021/06/16 11:04:51;;;;;;;2.25;0.30;;;;;;;26.33;37.00;100116.16;1728331;82;21013;-90
2021/06/16 11:07:37;;;;;;;0.85;0.20;;;;;;;26.43;36.47;100128.30;1716332;82;21001;-90
2021/06/16 11:10:06;;;;;;;1.30;0.10;;;;;;;26.49;34.31;100125.73;1715744;82;21073;-91
2021/06/16 11:12:40;;;;;;;0.40;0.35;;;;;;;26.52;33.17;100119.67;1714513;81;21199;-91
2021/06/16 11:15:13;;;;;;;0.45;0.10;;;;;;;26.58;33.47;100130.77;1727940;82;21000;-92
2021/06/16 11:17:43;;;;;;;1.82;0.30;;;;;;;26.62;34.51;100124.17;1718304;82;21052;-91
2021/06/16 11:20:28;;;;;;;1.25;0.10;;;;;;;26.64;33.80;100130.15;1705502;82;21536;-92
2021/06/16 11:22:59;;;;;;;0.65;0.10;;;;;;;26.66;34.10;100123.02;1703431;82;21068;-91
2021/06/16 11:25:33;;;;;;;0.55;0.30;;;;;;;26.64;33.31;100125.25;1705862;82;20989;-90
2021/06/16 11:28:19;;;;;;;0.68;0.10;;;;;;;26.62;32.94;100120.08;1716006;82;21014;-89
2021/06/16 11:30:57;;;;;;;1.92;0.13;;;;;;;26.69;31.95;100121.03;1730526;82;21075;-92
2021/06/16 11:33:28;;;;;;;3.22;0.10;;;;;;;26.71;29.14;100118.27;1701914;82;21190;-91
2021/06/16 11:36:07;;;;;;;0.42;0.10;;;;;;;26.70;29.82;100109.80;1674951;85;21075;-92
2021/06/16 11:38:40;;;;;;;1.32;0.10;;;;;;;26.69;30.34;100112.83;1678394;84;21537;-90
2021/06/16 11:41:20;;;;;;;0.20;0.10;;;;;;;26.69;28.78;100112.83;1679009;83;21435;-92
2021/06/16 11:43:58;;;;;;;0.82;0.10;;;;;;;26.66;29.97;100106.62;1687916;85;21147;-91
2021/06/16 11:46:37;;;;;;;0.10;0.10;;;;;;;26.58;29.20;100117.09;1689489;83;20994;-90
2021/06/16 11:49:12;;;;;;;0.53;0.10;;;;;;;26.52;29.41;100116.11;1687624;82;21145;-91
2021/06/16 11:51:58;;;;;;;0.62;0.10;;;;;;;26.54;28.70;100119.34;1690229;85;21041;-90